EGQM

Boulmer Airfield Airport

Boulmer, United Kingdom
METAR EGQM 171950Z AUTO 26008KT 9999 NCD 09/05 Q1024
Observed Flight Rules
Oct-17 @ 19:50 UTC (an hour ago) Visual Flight Rules
Wind Visibility Clouds
260° at 8 knots 10,000+ meters
  • Clear skies
Temperatures Readings
Current 9°C / 48°F
Dewpoint 5°C / 41°F
Humidity 76%
Altimeter 30.24" Hg
Pressure 1024 hPa
Elevation 23
METAR EGQM 171950Z AUTO 26008KT 9999 NCD 09/05 Q1024
Observed Flight Rules
Oct-17 @ 19:50 UTC
(an hour ago)
VFR
Wind Visibility
260° at 8 knots 10,000+ meters
Clouds
  • Clear skies
Temperature Dewpoint
9°C / 48°F 5°C / 41°F
Humidity Altimeter Pressure
76% 30.24" Hg 1024 hPa